createdAt,value
2023-02-09T00:01:11.900Z,37.40
2023-02-09T00:03:38.668Z,37.97
2023-02-09T00:06:07.322Z,37.85
2023-02-09T00:08:36.862Z,38.58
2023-02-09T00:11:08.763Z,37.08
2023-02-09T00:13:36.321Z,37.88
2023-02-09T00:16:04.203Z,37.25
2023-02-09T00:18:33.192Z,39.25
2023-02-09T00:21:10.667Z,38.53
2023-02-09T00:23:40.995Z,38.38
2023-02-09T00:26:10.843Z,37.25
2023-02-09T00:28:38.741Z,37.47
2023-02-09T00:31:07.746Z,38.67
2023-02-09T00:33:34.472Z,38.50
2023-02-09T00:36:04.293Z,38.53
2023-02-09T00:38:31.019Z,39.70
2023-02-09T00:40:58.555Z,38.28
2023-02-09T00:43:25.536Z,39.65
2023-02-09T00:45:53.055Z,38.25
2023-02-09T00:48:21.901Z,39.05
2023-02-09T00:50:50.973Z,39.05
2023-02-09T00:53:18.739Z,38.92
2023-02-09T00:55:46.537Z,39.38
2023-02-09T00:58:13.645Z,39.22
2023-02-09T01:00:40.926Z,38.60
2023-02-09T01:03:07.679Z,39.30
2023-02-09T01:05:34.433Z,38.03
2023-02-09T01:08:01.114Z,38.05
2023-02-09T01:10:30.631Z,39.58
2023-02-09T01:12:57.293Z,37.65
2023-02-09T01:15:23.969Z,39.10
2023-02-09T01:17:50.716Z,39.90
2023-02-09T01:20:17.702Z,38.70
2023-02-09T01:22:44.433Z,38.53
2023-02-09T01:25:11.196Z,38.50
2023-02-09T01:27:37.924Z,37.55
2023-02-09T01:30:05.098Z,37.78
2023-02-09T01:32:31.833Z,38.50
2023-02-09T01:34:58.536Z,36.95
2023-02-09T01:37:25.603Z,37.80
2023-02-09T01:39:52.290Z,38.17
2023-02-09T01:42:20.517Z,38.55
2023-02-09T01:44:47.357Z,38.00
2023-02-09T01:47:19.672Z,38.50
2023-02-09T01:49:49.279Z,37.60
2023-02-09T01:52:21.075Z,35.75
2023-02-09T01:55:05.261Z,38.45
2023-02-09T01:57:39.085Z,35.80
2023-02-09T02:00:09.951Z,37.03
2023-02-09T02:02:49.912Z,38.42
2023-02-09T02:05:17.442Z,39.22
2023-02-09T02:08:05.980Z,37.85
2023-02-09T02:10:32.841Z,38.03
2023-02-09T02:13:00.743Z,36.00
2023-02-09T02:15:34.406Z,37.78
2023-02-09T02:18:22.128Z,37.95
2023-02-09T02:21:07.077Z,37.35
2023-02-09T02:24:02.192Z,38.40
2023-02-09T02:26:45.410Z,36.67
2023-02-09T02:29:24.610Z,35.85
2023-02-09T02:32:08.774Z,36.03
2023-02-09T02:34:54.373Z,36.13
2023-02-09T02:37:48.787Z,37.13
2023-02-09T02:40:46.848Z,35.55
2023-02-09T02:43:13.661Z,36.63
2023-02-09T02:45:46.958Z,36.45
2023-02-09T02:48:31.078Z,36.88
2023-02-09T02:51:13.658Z,35.60
2023-02-09T02:53:44.250Z,36.65
2023-02-09T02:56:18.582Z,35.00
2023-02-09T02:58:48.895Z,35.20
2023-02-09T03:01:21.882Z,35.65
2023-02-09T03:03:50.468Z,35.10
2023-02-09T03:06:18.179Z,35.55
2023-02-09T03:08:56.391Z,35.97
2023-02-09T03:11:27.781Z,35.58
2023-02-09T03:14:29.406Z,34.05
2023-02-09T03:17:33.691Z,34.17
2023-02-09T03:20:08.602Z,35.15
2023-02-09T03:22:39.785Z,33.60
2023-02-09T03:25:18.173Z,34.55
2023-02-09T03:27:49.399Z,34.90
2023-02-09T03:30:18.021Z,35.05
2023-02-09T03:32:46.760Z,34.70
2023-02-09T03:35:17.541Z,34.38
2023-02-09T03:37:46.264Z,34.63
2023-02-09T03:40:13.281Z,34.97
2023-02-09T03:42:39.893Z,32.55
2023-02-09T03:45:08.074Z,34.78
2023-02-09T03:47:35.232Z,33.97
2023-02-09T03:50:01.965Z,33.08
2023-02-09T03:52:30.948Z,33.28
2023-02-09T03:54:57.650Z,34.28
2023-02-09T03:57:24.530Z,33.50
2023-02-09T03:59:51.216Z,34.90
2023-02-09T04:02:17.895Z,32.83
2023-02-09T04:04:44.569Z,32.95
2023-02-09T04:07:12.102Z,33.05
2023-02-09T04:09:38.825Z,33.50
2023-02-09T04:12:05.957Z,33.85
2023-02-09T04:14:32.638Z,32.30
2023-02-09T04:16:59.280Z,32.50
2023-02-09T04:19:25.936Z,32.42
2023-02-09T04:21:52.603Z,31.75
2023-02-09T04:24:26.108Z,32.05
2023-02-09T04:26:52.850Z,32.25
2023-02-09T04:29:19.499Z,30.48
2023-02-09T04:31:46.222Z,31.80
2023-02-09T04:34:12.917Z,30.55
2023-02-09T04:36:39.586Z,30.27
2023-02-09T04:39:06.321Z,30.25
2023-02-09T04:41:33.073Z,29.35
2023-02-09T04:43:59.755Z,30.02
2023-02-09T04:46:26.798Z,30.10
2023-02-09T04:48:53.488Z,30.50
2023-02-09T04:51:20.175Z,30.75
2023-02-09T04:53:46.847Z,30.42
2023-02-09T04:56:15.474Z,31.10
2023-02-09T04:59:01.311Z,30.42
2023-02-09T05:01:28.700Z,30.70
2023-02-09T05:03:55.422Z,29.75
2023-02-09T05:06:22.600Z,29.83
2023-02-09T05:08:49.369Z,29.23
2023-02-09T05:11:16.057Z,28.38
2023-02-09T05:13:42.924Z,28.60
2023-02-09T05:16:13.541Z,28.52
2023-02-09T05:18:40.184Z,27.70
2023-02-09T05:21:06.863Z,27.40
2023-02-09T05:23:33.838Z,27.88
2023-02-09T05:26:00.585Z,27.35
2023-02-09T05:28:27.499Z,26.88
2023-02-09T05:30:54.301Z,27.30
2023-02-09T05:33:22.411Z,27.63
2023-02-09T05:35:51.006Z,28.13
2023-02-09T05:38:18.260Z,27.13
2023-02-09T05:40:45.493Z,27.90
2023-02-09T05:43:12.291Z,28.52
2023-02-09T05:45:39.105Z,26.38
2023-02-09T05:48:05.905Z,26.65
2023-02-09T05:50:32.599Z,26.10
2023-02-09T05:53:06.308Z,26.88
2023-02-09T05:55:33.024Z,25.65
2023-02-09T05:57:59.711Z,25.75
2023-02-09T06:00:27.144Z,26.48
2023-02-09T06:02:53.850Z,26.20
2023-02-09T06:05:22.011Z,26.02
2023-02-09T06:07:48.993Z,26.52
2023-02-09T06:10:17.146Z,25.15
2023-02-09T06:12:43.865Z,26.30
2023-02-09T06:15:10.714Z,27.50
2023-02-09T06:17:37.617Z,28.08
2023-02-09T06:20:04.829Z,26.73
2023-02-09T06:22:31.825Z,26.65
2023-02-09T06:24:58.538Z,27.05
2023-02-09T06:27:25.226Z,27.48
2023-02-09T06:29:51.958Z,27.15
2023-02-09T06:32:18.692Z,27.23
2023-02-09T06:34:45.334Z,26.58
2023-02-09T06:37:11.954Z,27.27
2023-02-09T06:39:38.615Z,26.70
2023-02-09T06:42:05.357Z,26.50
2023-02-09T06:44:32.021Z,26.23
2023-02-09T06:46:58.713Z,26.35
2023-02-09T06:49:26.649Z,24.98
2023-02-09T06:51:53.485Z,26.42
2023-02-09T06:54:20.727Z,26.15
2023-02-09T06:56:47.900Z,25.85
2023-02-09T06:59:16.013Z,25.48
2023-02-09T07:01:43.076Z,24.60
2023-02-09T07:04:09.735Z,25.02
2023-02-09T07:06:36.530Z,25.23
2023-02-09T07:09:03.341Z,24.50
2023-02-09T07:11:30.628Z,23.80
2023-02-09T07:13:57.399Z,24.17
2023-02-09T07:16:24.158Z,25.00
2023-02-09T07:18:51.089Z,25.08
2023-02-09T07:21:20.063Z,24.13
2023-02-09T07:23:48.009Z,24.75
2023-02-09T07:26:17.198Z,24.08
2023-02-09T07:28:44.848Z,24.38
2023-02-09T07:31:14.025Z,23.60
2023-02-09T07:33:40.995Z,23.45
2023-02-09T07:36:11.588Z,23.08
2023-02-09T07:38:39.413Z,23.30
2023-02-09T07:41:08.004Z,22.98
2023-02-09T07:43:35.231Z,22.88
2023-02-09T07:46:07.202Z,23.17
2023-02-09T07:48:35.073Z,22.00
2023-02-09T07:51:02.534Z,23.10
2023-02-09T07:53:29.870Z,20.70
2023-02-09T07:55:57.213Z,20.77
2023-02-09T07:58:24.302Z,23.13
2023-02-09T08:00:51.623Z,22.35
2023-02-09T08:03:24.045Z,21.23
2023-02-09T08:06:11.119Z,20.80
2023-02-09T08:11:05.548Z,21.88
2023-02-09T08:13:37.924Z,20.85
2023-02-09T08:16:08.147Z,21.92
2023-02-09T08:18:40.720Z,19.90
2023-02-09T08:21:11.534Z,19.30
2023-02-09T08:23:41.137Z,20.70
2023-02-09T08:26:12.098Z,19.92
2023-02-09T08:28:44.944Z,19.70
2023-02-09T08:31:14.285Z,19.83
2023-02-09T08:33:41.712Z,18.38
2023-02-09T08:36:09.088Z,18.67
2023-02-09T08:38:35.845Z,19.48
2023-02-09T08:41:07.659Z,18.17
2023-02-09T08:43:35.266Z,18.58
2023-02-09T08:46:13.250Z,18.50
2023-02-09T08:48:42.351Z,18.63
2023-02-09T08:51:10.825Z,18.73
2023-02-09T08:53:37.613Z,17.75
2023-02-09T08:56:04.971Z,18.77
2023-02-09T08:58:33.424Z,17.73
2023-02-09T09:01:00.769Z,17.48
2023-02-09T09:03:31.300Z,17.15
2023-02-09T09:06:06.128Z,17.20
2023-02-09T09:08:35.780Z,16.65
2023-02-09T09:11:03.462Z,16.33
2023-02-09T09:13:30.244Z,16.70
2023-02-09T09:15:56.988Z,17.17
2023-02-09T09:18:25.351Z,16.70
2023-02-09T09:20:52.772Z,17.55
2023-02-09T09:23:21.284Z,16.05
2023-02-09T09:25:48.748Z,15.60
2023-02-09T09:28:15.981Z,16.45
2023-02-09T09:30:42.992Z,15.07
2023-02-09T09:33:09.861Z,16.50
2023-02-09T09:35:36.661Z,14.48
2023-02-09T09:38:03.349Z,14.85
2023-02-09T09:40:32.768Z,15.65
2023-02-09T09:43:03.745Z,15.63
2023-02-09T09:45:33.258Z,14.75
2023-02-09T09:48:00.284Z,15.80
2023-02-09T09:50:42.878Z,13.82
2023-02-09T09:53:23.776Z,15.52
2023-02-09T09:55:55.519Z,13.68
2023-02-09T09:58:22.634Z,13.90
2023-02-09T10:00:50.602Z,14.13
2023-02-09T10:03:20.159Z,14.18
2023-02-09T10:05:52.863Z,14.20
2023-02-09T10:08:33.441Z,13.93
2023-02-09T10:11:03.034Z,13.57
2023-02-09T10:13:38.625Z,14.13
2023-02-09T10:16:16.272Z,13.73
2023-02-09T10:18:43.442Z,13.00
2023-02-09T10:21:16.127Z,13.18
2023-02-09T10:23:51.327Z,13.88
2023-02-09T10:26:23.036Z,13.60
2023-02-09T10:28:53.189Z,13.07
2023-02-09T10:31:26.307Z,13.85
2023-02-09T10:33:59.006Z,13.68
2023-02-09T10:36:33.248Z,14.00
2023-02-09T10:39:11.800Z,13.63
2023-02-09T10:41:42.033Z,12.98
2023-02-09T10:44:16.788Z,13.43
2023-02-09T10:46:43.617Z,13.43
2023-02-09T10:49:29.102Z,12.52
2023-02-09T10:52:25.816Z,12.30
2023-02-09T10:54:57.364Z,12.20
2023-02-09T10:57:30.403Z,12.95
2023-02-09T11:00:00.751Z,12.50
2023-02-09T11:02:35.274Z,11.45
2023-02-09T11:05:03.125Z,12.55
2023-02-09T11:07:36.901Z,12.70
2023-02-09T11:10:12.600Z,12.10
2023-02-09T11:12:39.396Z,12.43
2023-02-09T11:15:28.049Z,12.88
2023-02-09T11:18:03.083Z,13.00
2023-02-09T11:20:35.991Z,12.88
2023-02-09T11:23:20.432Z,12.68
2023-02-09T11:26:06.900Z,12.52
2023-02-09T11:28:54.276Z,13.85
2023-02-09T11:31:56.123Z,13.70
2023-02-09T11:34:42.695Z,12.88
2023-02-09T11:37:27.458Z,12.45
2023-02-09T11:43:21.607Z,12.93
2023-02-09T11:46:07.490Z,13.25
2023-02-09T11:48:45.730Z,12.75
2023-02-09T11:51:30.438Z,12.25
2023-02-09T11:54:15.116Z,12.85
2023-02-09T11:56:51.020Z,12.88
2023-02-09T11:59:47.210Z,12.48
2023-02-09T12:02:15.204Z,12.57
2023-02-09T12:04:52.109Z,12.82
2023-02-09T12:07:43.966Z,12.48
2023-02-09T12:10:41.073Z,12.82
2023-02-09T12:13:19.282Z,12.00
2023-02-09T12:16:06.205Z,12.65
2023-02-09T12:21:30.185Z,11.45
2023-02-09T12:24:03.499Z,12.38
2023-02-09T12:26:46.897Z,12.23
2023-02-09T12:29:45.493Z,12.55
2023-02-09T12:32:46.360Z,12.68
2023-02-09T12:35:41.222Z,12.95
2023-02-09T12:38:26.140Z,12.23
2023-02-09T12:41:11.760Z,13.20
2023-02-09T12:43:48.583Z,12.88
2023-02-09T12:46:49.494Z,13.40
2023-02-09T12:49:32.251Z,12.80
2023-02-09T12:52:07.637Z,13.20
2023-02-09T12:55:06.181Z,12.82
2023-02-09T12:58:09.532Z,13.35
2023-02-09T13:01:01.477Z,12.90
2023-02-09T13:04:09.810Z,12.68
2023-02-09T13:07:03.405Z,13.13
2023-02-09T13:09:54.727Z,13.07
2023-02-09T13:12:42.538Z,12.52
2023-02-09T13:15:21.287Z,13.95
2023-02-09T13:18:13.904Z,13.48
2023-02-09T13:21:26.928Z,13.75
2023-02-09T13:24:15.947Z,13.00
2023-02-09T13:27:21.501Z,13.65
2023-02-09T13:29:59.283Z,13.82
2023-02-09T13:33:09.838Z,14.10
2023-02-09T13:36:09.181Z,13.70
2023-02-09T13:38:54.031Z,13.48
2023-02-09T13:41:39.462Z,14.30
2023-02-09T13:47:23.934Z,14.20
2023-02-09T13:50:28.889Z,14.43
2023-02-09T13:53:19.744Z,14.52
2023-02-09T13:56:03.824Z,14.90
2023-02-09T13:58:46.344Z,13.77
2023-02-09T14:01:25.829Z,14.13
2023-02-09T14:04:24.718Z,14.13
2023-02-09T14:07:03.085Z,14.05
2023-02-09T14:09:55.340Z,14.30
2023-02-09T14:13:21.735Z,13.98
2023-02-09T14:16:12.819Z,14.80
2023-02-09T14:19:07.304Z,14.20
2023-02-09T14:21:45.619Z,14.18
2023-02-09T14:24:26.129Z,15.02
2023-02-09T14:27:41.794Z,15.40
2023-02-09T14:30:35.733Z,15.20
2023-02-09T14:33:23.193Z,15.60
2023-02-09T14:36:02.945Z,15.82
2023-02-09T14:38:43.824Z,15.68
2023-02-09T14:41:43.751Z,14.57
2023-02-09T14:44:53.822Z,14.98
2023-02-09T14:47:55.478Z,15.18
2023-02-09T14:50:30.716Z,15.50
2023-02-09T14:53:17.021Z,15.43
2023-02-09T14:55:59.190Z,15.55
2023-02-09T14:58:40.916Z,15.05
2023-02-09T15:04:11.574Z,15.02
2023-02-09T15:06:53.446Z,15.50
2023-02-09T15:09:35.546Z,16.10
2023-02-09T15:15:26.828Z,15.85
2023-02-09T15:18:00.185Z,15.60
2023-02-09T15:20:38.390Z,15.20
2023-02-09T15:23:16.661Z,16.27
2023-02-09T15:25:55.167Z,15.30
2023-02-09T15:28:49.465Z,15.73
2023-02-09T15:31:30.144Z,15.77
2023-02-09T15:34:17.917Z,15.88
2023-02-09T15:37:07.107Z,15.65
2023-02-09T15:40:09.643Z,14.82
2023-02-09T15:43:19.979Z,15.30
2023-02-09T15:46:12.679Z,15.48
2023-02-09T15:48:54.273Z,15.25
2023-02-09T15:51:30.394Z,15.27
2023-02-09T15:54:35.628Z,16.20
2023-02-09T15:57:38.369Z,15.07
2023-02-09T16:00:27.490Z,16.02
2023-02-09T16:03:24.622Z,15.60
2023-02-09T16:05:57.473Z,15.15
2023-02-09T16:08:26.742Z,14.90
2023-02-09T16:10:53.752Z,16.35
2023-02-09T16:13:20.719Z,16.05
2023-02-09T16:15:48.545Z,15.98
2023-02-09T16:18:15.608Z,15.07
2023-02-09T16:20:50.097Z,14.88
2023-02-09T16:23:22.927Z,15.15
2023-02-09T16:25:51.598Z,15.45
2023-02-09T16:28:19.508Z,15.32
2023-02-09T16:30:50.645Z,16.63
2023-02-09T16:33:17.502Z,15.98
2023-02-09T16:35:46.575Z,15.05
2023-02-09T16:38:19.333Z,15.10
2023-02-09T16:40:46.336Z,16.15
2023-02-09T16:43:13.676Z,15.05
2023-02-09T16:45:48.497Z,15.02
2023-02-09T16:48:25.214Z,15.93
2023-02-09T16:50:53.854Z,15.75
2023-02-09T16:53:41.034Z,15.60
2023-02-09T16:56:10.743Z,15.85
2023-02-09T16:58:39.031Z,16.83
2023-02-09T17:01:15.778Z,16.95
2023-02-09T17:03:45.847Z,17.35
2023-02-09T17:06:21.353Z,16.50
2023-02-09T17:08:48.702Z,17.50
2023-02-09T17:11:18.335Z,16.90
2023-02-09T17:13:45.445Z,16.60
2023-02-09T17:16:28.633Z,17.23
2023-02-09T17:19:00.826Z,16.52
2023-02-09T17:21:34.954Z,16.90
2023-02-09T17:24:02.245Z,16.05
2023-02-09T17:26:29.025Z,18.10
2023-02-09T17:28:55.691Z,17.13
2023-02-09T17:31:28.325Z,17.02
2023-02-09T17:34:01.429Z,17.60
2023-02-09T17:36:30.701Z,18.08
2023-02-09T17:38:59.386Z,18.10
2023-02-09T17:41:26.018Z,17.15
2023-02-09T17:43:53.622Z,16.60
2023-02-09T17:46:20.587Z,16.67
2023-02-09T17:48:48.466Z,16.08
2023-02-09T17:51:30.631Z,17.48
2023-02-09T17:53:57.714Z,17.45
2023-02-09T17:56:24.405Z,17.13
2023-02-09T17:58:51.084Z,16.92
2023-02-09T18:01:27.297Z,16.70
2023-02-09T18:06:42.779Z,16.55
2023-02-09T18:09:14.964Z,16.92
2023-02-09T18:12:07.808Z,16.67
2023-02-09T18:14:34.672Z,17.42
2023-02-09T18:17:01.958Z,16.58
2023-02-09T18:19:29.423Z,17.80
2023-02-09T18:21:59.131Z,18.27
2023-02-09T18:24:29.166Z,17.38
2023-02-09T18:26:56.147Z,17.67
2023-02-09T18:29:28.945Z,17.27
2023-02-09T18:32:00.461Z,17.95
2023-02-09T18:34:27.474Z,17.83
2023-02-09T18:36:54.270Z,18.63
2023-02-09T18:39:21.188Z,18.63
2023-02-09T18:41:54.328Z,18.60
2023-02-09T18:44:29.023Z,19.13
2023-02-09T18:46:57.325Z,18.98
2023-02-09T18:49:24.088Z,19.80
2023-02-09T18:51:52.148Z,18.33
2023-02-09T18:54:18.943Z,18.35
2023-02-09T18:56:45.601Z,19.42
2023-02-09T18:59:12.389Z,19.15
2023-02-09T19:01:39.841Z,18.73
2023-02-09T19:04:06.591Z,18.70
2023-02-09T19:06:35.432Z,19.05
2023-02-09T19:09:02.540Z,19.42
2023-02-09T19:11:29.705Z,21.02
2023-02-09T19:14:15.035Z,20.33
2023-02-09T19:16:41.845Z,20.50
2023-02-09T19:19:09.457Z,19.80
2023-02-09T19:21:36.628Z,19.50
2023-02-09T19:24:03.785Z,20.35
2023-02-09T19:26:30.518Z,20.67
2023-02-09T19:28:57.618Z,19.45
2023-02-09T19:31:24.935Z,20.67
2023-02-09T19:33:56.323Z,20.60
2023-02-09T19:36:25.190Z,19.40
2023-02-09T19:38:51.919Z,21.17
2023-02-09T19:41:20.486Z,20.33
2023-02-09T19:43:47.245Z,21.50
2023-02-09T19:46:14.066Z,21.17
2023-02-09T19:48:41.301Z,21.75
2023-02-09T19:51:08.664Z,22.02
2023-02-09T19:53:35.743Z,21.55
2023-02-09T19:56:02.423Z,22.08
2023-02-09T19:58:29.651Z,22.23
2023-02-09T20:00:56.629Z,22.05
2023-02-09T20:03:23.975Z,21.35
2023-02-09T20:05:50.819Z,22.50
2023-02-09T20:08:19.967Z,23.40
2023-02-09T20:10:47.284Z,23.73
2023-02-09T20:13:15.551Z,22.75
2023-02-09T20:15:43.803Z,23.52
2023-02-09T20:18:12.631Z,23.45
2023-02-09T20:20:42.126Z,23.73
2023-02-09T20:23:09.905Z,23.67
2023-02-09T20:25:39.866Z,24.45
2023-02-09T20:28:06.622Z,23.55
2023-02-09T20:30:33.336Z,23.48
2023-02-09T20:33:00.110Z,24.45
2023-02-09T20:35:27.155Z,22.98
2023-02-09T20:37:54.078Z,23.33
2023-02-09T20:40:21.306Z,22.17
2023-02-09T20:43:06.251Z,24.05
2023-02-09T20:45:51.581Z,23.70
2023-02-09T20:48:19.513Z,23.33
2023-02-09T20:50:46.475Z,23.27
2023-02-09T20:53:13.401Z,23.63
2023-02-09T20:55:40.236Z,26.80
2023-02-09T20:58:07.329Z,24.85
2023-02-09T21:00:34.132Z,23.40
2023-02-09T21:03:01.033Z,23.02
2023-02-09T21:05:27.819Z,24.67
2023-02-09T21:07:55.457Z,22.42
2023-02-09T21:10:22.369Z,23.77
2023-02-09T21:12:49.278Z,26.02
2023-02-09T21:15:16.191Z,24.83
2023-02-09T21:17:47.886Z,24.10
2023-02-09T21:20:18.002Z,23.58
2023-02-09T21:22:44.665Z,22.17
2023-02-09T21:25:13.900Z,23.48
2023-02-09T21:27:40.577Z,23.23
2023-02-09T21:30:07.626Z,23.38
2023-02-09T21:32:35.039Z,23.15
2023-02-09T21:35:01.832Z,22.80
2023-02-09T21:37:32.353Z,24.08
2023-02-09T21:40:02.953Z,24.33
2023-02-09T21:42:31.235Z,23.58
2023-02-09T21:44:58.672Z,24.55
2023-02-09T21:47:27.650Z,23.88
2023-02-09T21:49:54.682Z,24.20
2023-02-09T21:52:21.757Z,24.27
2023-02-09T21:54:48.591Z,23.75
2023-02-09T21:57:15.633Z,24.25
2023-02-09T21:59:42.303Z,23.83
2023-02-09T22:02:14.082Z,24.77
2023-02-09T22:04:41.549Z,25.02
2023-02-09T22:07:08.516Z,25.20
2023-02-09T22:09:35.210Z,24.00
2023-02-09T22:12:02.481Z,26.48
2023-02-09T22:14:30.052Z,25.42
2023-02-09T22:16:58.528Z,25.65
2023-02-09T22:19:25.606Z,25.77
2023-02-09T22:21:52.548Z,24.77
2023-02-09T22:24:19.403Z,24.02
2023-02-09T22:26:47.220Z,23.42
2023-02-09T22:29:16.401Z,23.23
2023-02-09T22:31:43.869Z,22.33
2023-02-09T22:34:11.458Z,24.65
2023-02-09T22:36:39.916Z,25.08
2023-02-09T22:39:08.445Z,24.38
2023-02-09T22:41:35.195Z,24.67
2023-02-09T22:44:04.674Z,25.20
2023-02-09T22:46:38.125Z,24.02
2023-02-09T22:49:07.948Z,24.92
2023-02-09T22:51:36.110Z,24.63
2023-02-09T22:54:04.139Z,25.77
2023-02-09T22:56:31.912Z,24.25
2023-02-09T22:59:01.287Z,24.27
2023-02-09T23:01:29.435Z,25.52
2023-02-09T23:03:57.124Z,25.02
2023-02-09T23:06:27.205Z,25.52
2023-02-09T23:08:56.722Z,26.23
2023-02-09T23:11:24.135Z,26.20
2023-02-09T23:14:03.818Z,24.65
2023-02-09T23:16:35.062Z,24.05
2023-02-09T23:19:06.921Z,25.27
2023-02-09T23:21:37.441Z,25.67
2023-02-09T23:24:05.112Z,25.45
2023-02-09T23:26:32.325Z,23.45
2023-02-09T23:29:01.263Z,24.58
2023-02-09T23:31:28.567Z,24.35
2023-02-09T23:33:55.385Z,24.40
2023-02-09T23:36:24.804Z,23.70
2023-02-09T23:38:56.533Z,23.85
2023-02-09T23:41:23.927Z,23.38
2023-02-09T23:43:51.417Z,24.02
2023-02-09T23:46:21.161Z,23.75
2023-02-09T23:48:47.995Z,23.63
2023-02-09T23:51:20.560Z,24.48
2023-02-09T23:53:47.981Z,23.80
2023-02-09T23:56:16.487Z,24.95
2023-02-09T23:58:45.779Z,23.85
